createdAt,value
2019-03-23T00:00:13.988Z,7.61
2019-03-23T00:02:43.374Z,7.59
2019-03-23T00:05:12.307Z,7.60
2019-03-23T00:07:41.807Z,7.72
2019-03-23T00:10:10.902Z,7.91
2019-03-23T00:12:41.840Z,7.96
2019-03-23T00:15:11.978Z,7.87
2019-03-23T00:17:40.816Z,7.78
2019-03-23T00:20:10.539Z,7.80
2019-03-23T00:22:39.970Z,7.89
2019-03-23T00:25:09.602Z,7.93
2019-03-23T00:27:39.076Z,7.93
2019-03-23T00:30:11.039Z,7.93
2019-03-23T00:32:39.903Z,7.80
2019-03-23T00:35:09.441Z,7.80
2019-03-23T00:37:38.863Z,7.87
2019-03-23T00:40:09.406Z,7.90
2019-03-23T00:42:38.896Z,7.97
2019-03-23T00:45:09.322Z,7.95
2019-03-23T00:47:38.745Z,7.96
2019-03-23T00:50:09.175Z,7.96
2019-03-23T00:52:38.525Z,7.95
2019-03-23T00:55:08.498Z,7.91
2019-03-23T00:57:37.849Z,7.89
2019-03-23T01:00:12.013Z,7.83
2019-03-23T01:02:42.010Z,7.65
2019-03-23T01:05:12.108Z,7.57
2019-03-23T01:07:40.968Z,7.52
2019-03-23T01:10:12.201Z,7.39
2019-03-23T01:12:41.634Z,7.32
2019-03-23T01:15:13.081Z,7.28
2019-03-23T01:17:42.518Z,7.23
2019-03-23T01:20:12.787Z,7.19
2019-03-23T01:22:41.627Z,7.02
2019-03-23T01:25:11.545Z,7.02
2019-03-23T01:27:40.492Z,6.94
2019-03-23T01:30:12.270Z,7.02
2019-03-23T01:32:41.297Z,7.03
2019-03-23T01:35:10.391Z,7.03
2019-03-23T01:37:39.451Z,7.03
2019-03-23T01:40:09.242Z,6.98
2019-03-23T01:42:38.111Z,7.01
2019-03-23T01:45:12.248Z,6.99
2019-03-23T01:47:41.109Z,7.00
2019-03-23T01:50:11.472Z,6.98
2019-03-23T01:52:40.345Z,6.88
2019-03-23T01:55:09.776Z,6.83
2019-03-23T01:57:38.701Z,6.77
2019-03-23T02:00:12.197Z,6.56
2019-03-23T02:02:41.118Z,6.49
2019-03-23T02:05:10.048Z,6.45
2019-03-23T02:07:39.042Z,6.63
2019-03-23T02:10:09.711Z,6.67
2019-03-23T02:12:38.554Z,6.71
2019-03-23T02:15:09.342Z,6.78
2019-03-23T02:17:38.174Z,6.77
2019-03-23T02:20:11.876Z,6.61
2019-03-23T02:22:40.847Z,6.61
2019-03-23T02:25:09.971Z,6.60
2019-03-23T02:27:38.830Z,6.57
2019-03-23T02:30:12.155Z,6.67
2019-03-23T02:32:40.982Z,6.70
2019-03-23T02:35:10.229Z,6.52
2019-03-23T02:37:39.133Z,6.50
2019-03-23T02:40:09.695Z,6.50
2019-03-23T02:42:38.676Z,6.54
2019-03-23T02:45:09.593Z,6.56
2019-03-23T02:47:38.482Z,6.59
2019-03-23T02:50:08.639Z,6.59
2019-03-23T02:52:37.970Z,6.52
2019-03-23T02:55:11.339Z,6.41
2019-03-23T02:57:40.255Z,6.40
2019-03-23T03:00:14.047Z,6.36
2019-03-23T03:02:42.903Z,6.18
2019-03-23T03:05:11.906Z,6.28
2019-03-23T03:07:42.913Z,6.42
2019-03-23T03:10:12.813Z,6.46
2019-03-23T03:12:41.645Z,6.45
2019-03-23T03:15:10.995Z,6.40
2019-03-23T03:17:39.845Z,6.36
2019-03-23T03:20:10.200Z,6.37
2019-03-23T03:22:39.118Z,6.31
2019-03-23T03:25:08.059Z,6.30
2019-03-23T03:27:36.922Z,6.25
2019-03-23T03:30:08.455Z,5.97
2019-03-23T03:32:37.308Z,5.83
2019-03-23T03:35:06.899Z,5.80
2019-03-23T03:37:35.769Z,5.86
2019-03-23T03:40:06.810Z,5.83
2019-03-23T03:42:35.697Z,5.86
2019-03-23T03:45:07.432Z,5.91
2019-03-23T03:47:36.287Z,5.87
2019-03-23T03:50:10.148Z,5.69
2019-03-23T03:52:39.109Z,5.46
2019-03-23T03:55:07.962Z,5.48
2019-03-23T03:57:36.830Z,5.44
2019-03-23T04:00:09.646Z,5.49
2019-03-23T04:02:38.877Z,5.43
2019-03-23T04:05:07.966Z,5.23
2019-03-23T04:07:36.805Z,5.15
2019-03-23T04:10:07.044Z,5.08
2019-03-23T04:12:35.898Z,4.96
2019-03-23T04:15:06.737Z,4.92
2019-03-23T04:17:35.592Z,4.86
2019-03-23T04:20:06.066Z,4.81
2019-03-23T04:22:34.917Z,4.91
2019-03-23T04:25:04.874Z,5.05
2019-03-23T04:27:33.741Z,5.18
2019-03-23T04:30:02.578Z,5.25
2019-03-23T04:32:31.474Z,5.34
2019-03-23T04:35:00.376Z,5.36
2019-03-23T04:37:29.249Z,5.43
2019-03-23T04:39:58.205Z,5.39
2019-03-23T04:42:27.020Z,5.49
2019-03-23T04:44:55.898Z,5.69
2019-03-23T04:47:24.749Z,6.04
2019-03-23T04:49:53.590Z,6.27
2019-03-23T04:52:22.501Z,6.29
2019-03-23T04:54:51.371Z,6.25
2019-03-23T04:57:20.272Z,6.19
2019-03-23T04:59:49.159Z,6.24
2019-03-23T05:02:18.009Z,6.38
2019-03-23T05:04:46.848Z,6.46
2019-03-23T05:07:15.699Z,6.58
2019-03-23T05:09:44.540Z,6.69
2019-03-23T05:12:13.405Z,6.73
2019-03-23T05:14:42.255Z,6.83
2019-03-23T05:17:11.184Z,6.81
2019-03-23T05:19:40.045Z,6.89
2019-03-23T05:22:08.900Z,7.05
2019-03-23T05:24:38.397Z,7.07
2019-03-23T05:27:07.844Z,7.31
2019-03-23T05:29:37.291Z,7.27
2019-03-23T05:32:06.788Z,7.43
2019-03-23T05:34:36.215Z,7.63
2019-03-23T05:37:05.730Z,7.73
2019-03-23T05:39:35.195Z,7.82
2019-03-23T05:42:04.653Z,7.95
2019-03-23T05:44:34.060Z,8.06
2019-03-23T05:47:03.497Z,8.25
2019-03-23T05:49:32.952Z,8.41
2019-03-23T05:52:02.408Z,8.78
2019-03-23T05:54:31.848Z,8.79
2019-03-23T05:57:01.272Z,8.82
2019-03-23T05:59:30.730Z,9.06
2019-03-23T06:02:00.235Z,9.16
2019-03-23T06:04:29.731Z,9.12
2019-03-23T06:07:00.962Z,9.44
2019-03-23T06:09:30.402Z,9.40
2019-03-23T06:11:59.845Z,9.66
2019-03-23T06:14:29.268Z,9.96
2019-03-23T06:16:58.716Z,10.31
2019-03-23T06:19:28.166Z,10.17
2019-03-23T06:21:57.633Z,10.31
2019-03-23T06:24:27.074Z,10.45
2019-03-23T06:26:57.339Z,10.67
2019-03-23T06:29:26.800Z,10.72
2019-03-23T06:31:56.247Z,11.06
2019-03-23T06:34:25.689Z,11.15
2019-03-23T06:36:55.131Z,11.39
2019-03-23T06:39:24.570Z,11.54
2019-03-23T06:41:54.011Z,11.54
2019-03-23T06:44:23.446Z,11.56
2019-03-23T06:46:52.947Z,11.76
2019-03-23T06:49:22.408Z,12.07
2019-03-23T06:51:51.866Z,11.93
2019-03-23T06:54:21.275Z,12.16
2019-03-23T06:56:50.772Z,12.30
2019-03-23T06:59:20.247Z,12.74
2019-03-23T07:01:49.687Z,12.85
2019-03-23T07:04:19.302Z,12.97
2019-03-23T07:06:48.777Z,13.22
2019-03-23T07:09:18.251Z,13.35
2019-03-23T07:11:47.730Z,13.47
2019-03-23T07:14:17.173Z,13.52
2019-03-23T07:16:46.729Z,13.90
2019-03-23T07:19:16.184Z,14.09
2019-03-23T07:21:45.674Z,14.31
2019-03-23T07:24:15.195Z,14.31
2019-03-23T07:26:44.803Z,14.73
2019-03-23T07:29:14.399Z,14.55
2019-03-23T07:31:43.846Z,14.81
2019-03-23T07:34:13.358Z,15.00
2019-03-23T07:36:42.827Z,15.33
2019-03-23T07:39:12.325Z,15.34
2019-03-23T07:41:41.769Z,15.60
2019-03-23T07:44:11.214Z,15.81
2019-03-23T07:46:40.717Z,16.12
2019-03-23T07:49:10.174Z,16.28
2019-03-23T07:51:39.646Z,16.30
2019-03-23T07:54:09.122Z,16.84
2019-03-23T07:56:38.590Z,17.22
2019-03-23T07:59:08.055Z,17.72
2019-03-23T08:01:37.567Z,17.07
2019-03-23T08:04:07.011Z,16.71
2019-03-23T08:06:36.573Z,17.01
2019-03-23T08:09:06.585Z,17.32
2019-03-23T08:11:36.032Z,17.39
2019-03-23T08:14:05.471Z,17.51
2019-03-23T08:16:34.960Z,17.66
2019-03-23T08:19:04.493Z,18.40
2019-03-23T08:21:33.983Z,18.56
2019-03-23T08:24:03.452Z,18.90
2019-03-23T08:26:33.155Z,18.89
2019-03-23T08:29:03.344Z,19.03
2019-03-23T08:31:33.044Z,19.26
2019-03-23T08:34:02.530Z,19.31
2019-03-23T08:36:31.998Z,19.51
2019-03-23T08:39:01.531Z,19.05
2019-03-23T08:41:30.977Z,19.29
2019-03-23T08:44:00.443Z,19.57
2019-03-23T08:46:29.885Z,19.70
2019-03-23T08:48:59.372Z,19.51
2019-03-23T08:51:28.827Z,19.92
2019-03-23T08:53:58.292Z,20.18
2019-03-23T08:56:27.730Z,19.88
2019-03-23T08:58:57.206Z,20.00
2019-03-23T09:01:26.709Z,20.65
2019-03-23T09:03:56.184Z,20.59
2019-03-23T09:06:25.798Z,20.39
2019-03-23T09:08:55.349Z,20.30
2019-03-23T09:11:25.038Z,20.31
2019-03-23T09:13:54.477Z,20.81
2019-03-23T09:16:23.939Z,20.99
2019-03-23T09:18:53.451Z,20.94
2019-03-23T09:21:22.901Z,20.67
2019-03-23T09:23:52.459Z,20.33
2019-03-23T09:26:21.934Z,21.17
2019-03-23T09:28:51.438Z,20.85
2019-03-23T09:31:20.879Z,20.97
2019-03-23T09:33:50.339Z,21.38
2019-03-23T09:36:23.076Z,21.04
2019-03-23T09:38:51.025Z,20.98
2019-03-23T09:41:20.576Z,21.40
2019-03-23T09:43:50.032Z,21.63
2019-03-23T09:46:19.567Z,21.84
2019-03-23T09:48:49.044Z,22.10
2019-03-23T09:51:18.577Z,21.75
2019-03-23T09:53:48.107Z,21.61
2019-03-23T09:56:17.562Z,21.71
2019-03-23T09:58:47.076Z,21.61
2019-03-23T10:01:16.657Z,22.11
2019-03-23T10:03:46.107Z,22.04
2019-03-23T10:06:15.821Z,22.42
2019-03-23T10:08:46.530Z,22.60
2019-03-23T10:11:16.540Z,22.29
2019-03-23T10:13:46.128Z,22.91
2019-03-23T10:16:15.604Z,22.91
2019-03-23T10:18:45.009Z,23.04
2019-03-23T10:21:14.614Z,23.23
2019-03-23T10:23:44.055Z,22.74
2019-03-23T10:26:13.521Z,23.06
2019-03-23T10:28:42.999Z,23.14
2019-03-23T10:31:12.168Z,23.77
2019-03-23T10:33:43.796Z,23.66
2019-03-23T10:36:12.767Z,22.72
2019-03-23T10:38:42.352Z,22.57
2019-03-23T10:41:11.835Z,22.29
2019-03-23T10:43:41.255Z,23.02
2019-03-23T10:46:10.838Z,23.02
2019-03-23T10:48:40.290Z,22.51
2019-03-23T10:51:09.897Z,23.05
2019-03-23T10:53:39.552Z,23.05
2019-03-23T10:56:08.974Z,24.56
2019-03-23T10:58:38.243Z,24.52
2019-03-23T11:01:07.654Z,24.52
2019-03-23T11:03:37.316Z,24.52
2019-03-23T11:06:06.877Z,24.90
2019-03-23T11:08:36.221Z,24.90
2019-03-23T11:11:05.333Z,24.64
2019-03-23T11:13:34.810Z,24.57
2019-03-23T11:16:03.975Z,24.57
2019-03-23T11:18:33.109Z,24.81
2019-03-23T11:21:02.575Z,24.43
2019-03-23T11:23:31.992Z,24.43
2019-03-23T11:26:01.470Z,24.97
2019-03-23T11:28:30.640Z,24.97
2019-03-23T11:31:00.288Z,24.88
2019-03-23T11:33:29.699Z,24.63
2019-03-23T11:35:59.161Z,24.85
2019-03-23T11:38:28.634Z,24.51
2019-03-23T11:40:58.103Z,24.05
2019-03-23T11:43:27.302Z,24.62
2019-03-23T11:45:56.429Z,24.87
2019-03-23T11:48:25.946Z,24.83
2019-03-23T11:50:55.066Z,25.79
2019-03-23T11:53:24.843Z,25.79
2019-03-23T11:55:54.521Z,26.05
2019-03-23T11:58:23.635Z,26.61
2019-03-23T12:00:53.266Z,25.89
2019-03-23T12:03:22.413Z,26.03
2019-03-23T12:05:51.617Z,25.84
2019-03-23T12:08:24.092Z,26.08
2019-03-23T12:11:02.533Z,24.89
2019-03-23T12:13:24.459Z,25.06
2019-03-23T12:15:53.574Z,25.06
2019-03-23T12:18:23.042Z,25.63
2019-03-23T12:20:52.641Z,25.59
2019-03-23T12:23:22.073Z,25.87
2019-03-23T12:25:51.250Z,26.07
2019-03-23T12:28:20.439Z,26.07
2019-03-23T12:30:49.655Z,25.75
2019-03-23T12:33:18.799Z,25.75
2019-03-23T12:35:54.970Z,25.53
2019-03-23T12:38:37.775Z,25.30
2019-03-23T12:41:23.355Z,25.55
2019-03-23T12:43:52.685Z,26.28
2019-03-23T12:46:26.367Z,25.65
2019-03-23T12:48:56.168Z,25.88
2019-03-23T12:51:25.613Z,25.88
2019-03-23T12:53:54.833Z,25.94
2019-03-23T12:56:26.691Z,25.69
2019-03-23T12:59:01.274Z,26.09
2019-03-23T13:01:36.022Z,26.18
2019-03-23T13:04:10.244Z,25.85
2019-03-23T13:06:43.051Z,24.78
2019-03-23T13:09:12.877Z,24.47
2019-03-23T13:11:42.341Z,24.69
2019-03-23T13:14:11.785Z,24.32
2019-03-23T13:16:41.286Z,24.32
2019-03-23T13:19:10.725Z,24.32
2019-03-23T13:21:40.151Z,25.55
2019-03-23T13:24:09.293Z,25.55
2019-03-23T13:26:38.723Z,25.88
2019-03-23T13:29:07.863Z,25.88
2019-03-23T13:31:36.989Z,25.63
2019-03-23T13:34:06.238Z,26.22
2019-03-23T13:36:35.369Z,26.62
2019-03-23T13:39:06.348Z,26.62
2019-03-23T13:41:44.772Z,26.30
2019-03-23T13:44:14.100Z,26.35
2019-03-23T13:46:44.871Z,25.50
2019-03-23T13:49:14.469Z,25.50
2019-03-23T13:51:48.331Z,25.83
2019-03-23T13:54:18.395Z,25.47
2019-03-23T13:56:50.864Z,25.78
2019-03-23T13:59:22.748Z,25.78
2019-03-23T14:02:01.860Z,25.57
2019-03-23T14:04:31.427Z,25.58
2019-03-23T14:07:00.955Z,25.78
2019-03-23T14:09:30.082Z,25.88
2019-03-23T14:12:04.814Z,25.03
2019-03-23T14:14:34.480Z,24.64
2019-03-23T14:17:03.939Z,24.50
2019-03-23T14:19:33.559Z,24.50
2019-03-23T14:22:03.034Z,24.32
2019-03-23T14:24:32.578Z,23.60
2019-03-23T14:27:02.034Z,23.40
2019-03-23T14:29:31.503Z,23.40
2019-03-23T14:32:01.016Z,23.02
2019-03-23T14:34:30.552Z,22.97
2019-03-23T14:37:00.067Z,23.33
2019-03-23T14:39:31.072Z,23.38
2019-03-23T14:42:04.879Z,23.38
2019-03-23T14:44:31.914Z,23.16
2019-03-23T14:47:01.336Z,22.99
2019-03-23T14:49:30.762Z,22.56
2019-03-23T14:52:00.207Z,22.87
2019-03-23T14:54:29.706Z,22.61
2019-03-23T14:56:59.307Z,22.61
2019-03-23T14:59:28.813Z,22.33
2019-03-23T15:01:58.316Z,22.11
2019-03-23T15:04:27.822Z,22.28
2019-03-23T15:06:59.002Z,22.28
2019-03-23T15:09:28.441Z,22.33
2019-03-23T15:11:57.901Z,22.29
2019-03-23T15:14:27.363Z,22.44
2019-03-23T15:16:56.858Z,22.44
2019-03-23T15:19:26.245Z,22.71
2019-03-23T15:21:55.783Z,22.71
2019-03-23T15:24:25.250Z,22.67
2019-03-23T15:26:54.719Z,23.10
2019-03-23T15:29:24.203Z,23.38
2019-03-23T15:31:53.661Z,23.57
2019-03-23T15:34:23.138Z,23.61
2019-03-23T15:36:52.569Z,23.61
2019-03-23T15:39:22.032Z,23.72
2019-03-23T15:41:51.547Z,23.94
2019-03-23T15:44:21.084Z,23.80
2019-03-23T15:46:50.652Z,23.56
2019-03-23T15:49:20.098Z,23.56
2019-03-23T15:51:49.535Z,23.28
2019-03-23T15:54:19.020Z,22.87
2019-03-23T15:56:48.506Z,22.31
2019-03-23T15:59:18.056Z,21.77
2019-03-23T16:01:47.651Z,21.42
2019-03-23T16:04:17.121Z,21.09
2019-03-23T16:06:46.589Z,20.81
2019-03-23T16:09:16.047Z,20.64
2019-03-23T16:11:45.586Z,20.44
2019-03-23T16:14:15.047Z,20.31
2019-03-23T16:16:44.558Z,20.13
2019-03-23T16:19:14.052Z,19.93
2019-03-23T16:21:43.696Z,19.89
2019-03-23T16:24:13.244Z,19.72
2019-03-23T16:26:42.643Z,19.55
2019-03-23T16:29:12.123Z,19.36
2019-03-23T16:31:41.571Z,19.26
2019-03-23T16:34:11.055Z,19.14
2019-03-23T16:36:40.492Z,19.13
2019-03-23T16:39:09.939Z,19.04
2019-03-23T16:41:39.421Z,18.87
2019-03-23T16:44:08.848Z,18.59
2019-03-23T16:46:38.274Z,18.39
2019-03-23T16:49:07.767Z,18.19
2019-03-23T16:51:37.217Z,18.29
2019-03-23T16:54:06.828Z,18.18
2019-03-23T16:56:36.441Z,18.03
2019-03-23T16:59:05.976Z,17.77
2019-03-23T17:01:35.441Z,17.58
2019-03-23T17:04:04.877Z,17.60
2019-03-23T17:06:34.383Z,17.55
2019-03-23T17:09:04.815Z,17.44
2019-03-23T17:11:34.264Z,17.09
2019-03-23T17:14:03.730Z,16.94
2019-03-23T17:16:33.186Z,16.90
2019-03-23T17:19:02.619Z,16.85
2019-03-23T17:21:32.099Z,16.85
2019-03-23T17:24:01.598Z,16.74
2019-03-23T17:26:31.056Z,16.64
2019-03-23T17:29:00.505Z,16.46
2019-03-23T17:31:30.005Z,16.54
2019-03-23T17:33:59.483Z,16.51
2019-03-23T17:36:29.090Z,16.37
2019-03-23T17:38:58.522Z,16.31
2019-03-23T17:41:27.967Z,16.01
2019-03-23T17:43:57.483Z,15.87
2019-03-23T17:46:27.839Z,15.75
2019-03-23T17:48:57.483Z,15.70
2019-03-23T17:51:26.936Z,15.69
2019-03-23T17:53:58.792Z,15.67
2019-03-23T17:56:27.691Z,15.66
2019-03-23T17:58:57.128Z,15.64
2019-03-23T18:01:27.879Z,15.60
2019-03-23T18:03:57.321Z,15.49
2019-03-23T18:06:26.766Z,15.40
2019-03-23T18:08:57.143Z,15.20
2019-03-23T18:11:27.758Z,15.12
2019-03-23T18:13:58.830Z,15.16
2019-03-23T18:16:28.266Z,15.12
2019-03-23T18:18:57.737Z,15.02
2019-03-23T18:21:27.301Z,15.03
2019-03-23T18:23:56.792Z,15.03
2019-03-23T18:26:26.316Z,14.90
2019-03-23T18:28:55.811Z,14.90
2019-03-23T18:31:25.372Z,14.86
2019-03-23T18:33:54.799Z,14.68
2019-03-23T18:36:24.341Z,14.51
2019-03-23T18:38:53.841Z,14.37
2019-03-23T18:41:23.327Z,14.25
2019-03-23T18:43:52.780Z,14.25
2019-03-23T18:46:24.452Z,14.24
2019-03-23T18:48:53.439Z,14.14
2019-03-23T18:51:23.055Z,13.97
2019-03-23T18:53:52.555Z,13.90
2019-03-23T18:56:21.995Z,13.80
2019-03-23T18:58:51.520Z,13.62
2019-03-23T19:01:21.017Z,13.44
2019-03-23T19:03:50.494Z,13.38
2019-03-23T19:06:21.772Z,13.27
2019-03-23T19:08:51.244Z,13.12
2019-03-23T19:11:20.810Z,12.98
2019-03-23T19:13:58.568Z,12.84
2019-03-23T19:16:28.061Z,12.74
2019-03-23T19:18:57.545Z,12.73
2019-03-23T19:21:29.770Z,12.75
2019-03-23T19:23:59.255Z,12.57
2019-03-23T19:26:28.707Z,12.55
2019-03-23T19:28:58.157Z,12.43
2019-03-23T19:31:27.637Z,12.27
2019-03-23T19:33:57.258Z,12.20
2019-03-23T19:36:27.065Z,12.19
2019-03-23T19:38:56.606Z,12.12
2019-03-23T19:41:26.243Z,12.06
2019-03-23T19:43:55.723Z,11.93
2019-03-23T19:46:25.290Z,11.81
2019-03-23T19:48:54.813Z,11.63
2019-03-23T19:51:24.268Z,11.66
2019-03-23T19:53:53.781Z,11.60
2019-03-23T19:56:23.323Z,11.57
2019-03-23T19:58:52.775Z,11.54
2019-03-23T20:01:22.286Z,11.49
2019-03-23T20:03:51.906Z,11.50
2019-03-23T20:06:21.410Z,11.40
2019-03-23T20:08:50.963Z,11.26
2019-03-23T20:11:20.480Z,11.20
2019-03-23T20:13:58.509Z,11.11
2019-03-23T20:16:21.208Z,11.02
2019-03-23T20:18:50.794Z,10.99
2019-03-23T20:21:20.279Z,10.87
2019-03-23T20:23:51.280Z,10.77
2019-03-23T20:26:20.894Z,10.76
2019-03-23T20:28:50.399Z,10.69
2019-03-23T20:31:19.890Z,10.62
2019-03-23T20:33:49.394Z,10.67
2019-03-23T20:36:18.811Z,10.55
2019-03-23T20:38:48.281Z,10.57
2019-03-23T20:41:17.758Z,10.45
2019-03-23T20:43:47.217Z,10.42
2019-03-23T20:46:16.722Z,10.32
2019-03-23T20:48:46.521Z,10.29
2019-03-23T20:51:16.394Z,10.29
2019-03-23T20:53:45.819Z,10.13
2019-03-23T20:56:15.301Z,10.10
2019-03-23T20:58:44.738Z,10.09
2019-03-23T21:01:14.257Z,10.03
2019-03-23T21:03:43.712Z,9.97
2019-03-23T21:06:13.162Z,10.00
2019-03-23T21:08:42.599Z,9.98
2019-03-23T21:11:12.054Z,9.87
2019-03-23T21:13:41.558Z,9.86
2019-03-23T21:16:10.999Z,9.81
2019-03-23T21:18:40.447Z,9.77
2019-03-23T21:21:09.871Z,9.63
2019-03-23T21:23:39.335Z,9.55
2019-03-23T21:26:08.817Z,9.46
2019-03-23T21:28:38.290Z,9.42
2019-03-23T21:31:07.758Z,9.35
2019-03-23T21:33:38.980Z,9.32
2019-03-23T21:36:08.505Z,9.25
2019-03-23T21:38:37.970Z,9.22
2019-03-23T21:41:07.470Z,9.19
2019-03-23T21:43:36.922Z,9.16
2019-03-23T21:46:06.353Z,9.15
2019-03-23T21:48:35.817Z,9.23
2019-03-23T21:51:05.258Z,9.22
2019-03-23T21:53:34.699Z,9.29
2019-03-23T21:56:04.150Z,9.34
2019-03-23T21:58:33.599Z,9.38
2019-03-23T22:01:03.038Z,9.48
2019-03-23T22:03:32.486Z,9.58
2019-03-23T22:06:01.922Z,9.57
2019-03-23T22:08:31.355Z,9.54
2019-03-23T22:11:00.807Z,9.57
2019-03-23T22:13:30.258Z,9.61
2019-03-23T22:15:59.677Z,9.59
2019-03-23T22:18:29.134Z,9.63
2019-03-23T22:20:58.619Z,9.62
2019-03-23T22:23:28.104Z,9.65
2019-03-23T22:25:57.630Z,9.72
2019-03-23T22:28:27.052Z,9.76
2019-03-23T22:30:56.481Z,9.85
2019-03-23T22:33:25.922Z,9.89
2019-03-23T22:35:55.401Z,9.89
2019-03-23T22:38:24.942Z,9.95
2019-03-23T22:40:54.449Z,9.91
2019-03-23T22:43:24.019Z,9.96
2019-03-23T22:45:53.524Z,10.03
2019-03-23T22:48:22.960Z,9.95
2019-03-23T22:50:52.399Z,10.01
2019-03-23T22:53:21.857Z,10.01
2019-03-23T22:55:51.287Z,9.96
2019-03-23T22:58:20.725Z,9.99
2019-03-23T23:00:50.768Z,9.98
2019-03-23T23:03:20.227Z,9.90
2019-03-23T23:05:49.754Z,10.00
2019-03-23T23:08:19.337Z,9.99
2019-03-23T23:10:48.744Z,9.87
2019-03-23T23:13:18.175Z,9.90
2019-03-23T23:15:47.610Z,9.93
2019-03-23T23:18:17.042Z,9.93
2019-03-23T23:20:46.482Z,9.90
2019-03-23T23:23:15.976Z,9.93
2019-03-23T23:25:45.524Z,9.99
2019-03-23T23:28:14.986Z,9.93
2019-03-23T23:30:44.406Z,9.84
2019-03-23T23:33:13.853Z,9.83
2019-03-23T23:35:43.329Z,9.84
2019-03-23T23:38:12.875Z,9.83
2019-03-23T23:40:42.343Z,9.89
2019-03-23T23:43:11.879Z,9.91
2019-03-23T23:45:41.312Z,9.89
2019-03-23T23:48:10.731Z,10.01
2019-03-23T23:50:40.164Z,10.12
2019-03-23T23:53:09.592Z,10.31
2019-03-23T23:55:39.049Z,10.37
2019-03-23T23:58:08.531Z,10.36
